createdAt,value
2017-08-10T00:01:01.552Z,15.30
2017-08-10T00:03:28.448Z,14.33
2017-08-10T00:05:55.243Z,14.00
2017-08-10T00:08:22.027Z,13.40
2017-08-10T00:10:48.851Z,14.13
2017-08-10T00:13:15.698Z,13.63
2017-08-10T00:15:42.493Z,13.77
2017-08-10T00:18:09.328Z,13.40
2017-08-10T00:20:36.126Z,13.23
2017-08-10T00:23:02.922Z,13.10
2017-08-10T00:25:29.756Z,13.93
2017-08-10T00:27:56.533Z,13.10
2017-08-10T00:30:23.328Z,13.67
2017-08-10T00:32:50.131Z,14.00
2017-08-10T00:35:16.973Z,13.93
2017-08-10T00:37:43.754Z,12.93
2017-08-10T00:40:10.635Z,13.13
2017-08-10T00:42:37.405Z,13.17
2017-08-10T00:45:04.189Z,13.00
2017-08-10T00:47:31.588Z,13.77
2017-08-10T00:49:59.324Z,13.40
2017-08-10T00:52:26.083Z,13.17
2017-08-10T00:54:52.988Z,14.20
2017-08-10T00:57:19.776Z,13.67
2017-08-10T00:59:46.590Z,12.73
2017-08-10T01:02:13.484Z,12.43
2017-08-10T01:04:40.269Z,12.23
2017-08-10T01:07:07.057Z,12.00
2017-08-10T01:09:33.884Z,13.37
2017-08-10T01:12:00.659Z,13.27
2017-08-10T01:14:27.464Z,12.97
2017-08-10T01:16:54.347Z,13.37
2017-08-10T01:19:21.123Z,12.57
2017-08-10T01:21:47.913Z,12.37
2017-08-10T01:24:14.813Z,12.90
2017-08-10T01:26:41.599Z,13.33
2017-08-10T01:29:08.368Z,13.57
2017-08-10T01:31:36.231Z,13.17
2017-08-10T01:34:03.010Z,12.30
2017-08-10T01:36:29.806Z,12.93
2017-08-10T01:38:56.617Z,13.27
2017-08-10T01:41:23.480Z,13.10
2017-08-10T01:43:50.246Z,13.00
2017-08-10T01:46:17.093Z,13.77
2017-08-10T01:48:43.865Z,13.27
2017-08-10T01:51:10.677Z,13.10
2017-08-10T01:53:37.508Z,13.03
2017-08-10T01:56:04.283Z,13.60
2017-08-10T01:58:31.089Z,13.97
2017-08-10T02:00:57.919Z,13.20
2017-08-10T02:03:24.699Z,13.23
2017-08-10T02:05:51.480Z,12.90
2017-08-10T02:08:18.367Z,12.77
2017-08-10T02:10:45.817Z,13.53
2017-08-10T02:13:12.660Z,13.23
2017-08-10T02:15:39.551Z,13.70
2017-08-10T02:18:06.395Z,13.00
2017-08-10T02:20:34.044Z,12.47
2017-08-10T02:23:00.852Z,13.07
2017-08-10T02:25:27.636Z,13.17
2017-08-10T02:27:54.429Z,13.77
2017-08-10T02:30:21.241Z,13.13
2017-08-10T02:32:48.017Z,13.03
2017-08-10T02:35:14.817Z,13.47
2017-08-10T02:37:41.657Z,13.27
2017-08-10T02:40:08.500Z,14.40
2017-08-10T02:42:35.277Z,13.93
2017-08-10T02:45:02.094Z,14.63
2017-08-10T02:47:28.940Z,13.77
2017-08-10T02:49:55.789Z,13.87
2017-08-10T02:52:22.591Z,13.50
2017-08-10T02:54:49.388Z,13.33
2017-08-10T02:57:16.230Z,13.43
2017-08-10T02:59:43.958Z,14.13
2017-08-10T03:02:11.503Z,13.47
2017-08-10T03:04:38.357Z,14.43
2017-08-10T03:07:05.166Z,14.73
2017-08-10T03:09:31.948Z,14.00
2017-08-10T03:11:58.721Z,13.50
2017-08-10T03:14:25.537Z,14.07
2017-08-10T03:16:52.321Z,14.60
2017-08-10T03:19:19.128Z,14.30
2017-08-10T03:21:45.971Z,14.47
2017-08-10T03:24:14.370Z,14.53
2017-08-10T03:26:41.778Z,13.70
2017-08-10T03:29:08.584Z,13.97
2017-08-10T03:31:35.350Z,14.63
2017-08-10T03:34:02.192Z,14.33
2017-08-10T03:36:29.727Z,13.90
2017-08-10T03:38:56.496Z,15.00
2017-08-10T03:41:23.270Z,15.00
2017-08-10T03:43:50.123Z,15.07
2017-08-10T03:46:16.901Z,17.57
2017-08-10T03:48:43.685Z,16.07
2017-08-10T03:51:10.503Z,17.27
2017-08-10T03:53:37.272Z,14.20
2017-08-10T03:56:04.068Z,15.20
2017-08-10T03:58:30.970Z,14.33
2017-08-10T04:00:57.741Z,14.63
2017-08-10T04:03:24.612Z,15.20
2017-08-10T04:05:51.763Z,15.10
2017-08-10T04:08:18.781Z,15.10
2017-08-10T04:10:45.590Z,13.90
2017-08-10T04:13:12.418Z,14.55
2017-08-10T04:15:39.333Z,14.10
2017-08-10T04:18:06.179Z,13.60
2017-08-10T04:20:33.028Z,14.37
2017-08-10T04:23:00.680Z,15.23
2017-08-10T04:25:27.458Z,13.97
2017-08-10T04:27:55.470Z,13.93
2017-08-10T04:30:22.272Z,14.50
2017-08-10T04:32:49.064Z,14.63
2017-08-10T04:35:15.872Z,14.40
2017-08-10T04:37:42.716Z,13.73
2017-08-10T04:40:09.480Z,13.80
2017-08-10T04:42:36.285Z,13.43
2017-08-10T04:45:03.134Z,15.00
2017-08-10T04:47:30.024Z,14.43
2017-08-10T04:49:56.910Z,15.93
2017-08-10T04:52:23.700Z,16.60
2017-08-10T04:54:50.663Z,16.33
2017-08-10T04:57:17.486Z,14.87
2017-08-10T04:59:44.265Z,14.30
2017-08-10T05:02:11.111Z,13.90
2017-08-10T05:04:37.923Z,13.20
2017-08-10T05:07:04.688Z,12.90
2017-08-10T05:09:31.461Z,13.40
2017-08-10T05:11:58.260Z,12.83
2017-08-10T05:14:25.020Z,13.17
2017-08-10T05:16:51.788Z,13.47
2017-08-10T05:19:18.663Z,14.00
2017-08-10T05:21:45.527Z,13.97
2017-08-10T05:24:12.299Z,14.17
2017-08-10T05:26:39.147Z,13.40
2017-08-10T05:29:05.931Z,12.80
2017-08-10T05:31:32.709Z,12.97
2017-08-10T05:33:59.559Z,12.80
2017-08-10T05:36:26.399Z,12.23
2017-08-10T05:38:53.195Z,11.80
2017-08-10T05:41:20.001Z,11.83
2017-08-10T05:43:46.770Z,12.70
2017-08-10T05:46:13.531Z,12.60
2017-08-10T05:48:40.340Z,12.83
2017-08-10T05:51:07.117Z,12.10
2017-08-10T05:53:34.596Z,12.90
2017-08-10T05:56:01.546Z,12.27
2017-08-10T05:58:28.338Z,11.70
2017-08-10T06:00:55.109Z,12.07
2017-08-10T06:03:21.993Z,12.00
2017-08-10T06:05:48.780Z,11.30
2017-08-10T06:08:15.622Z,12.23
2017-08-10T06:10:42.449Z,12.13
2017-08-10T06:13:09.212Z,11.90
2017-08-10T06:15:35.989Z,11.03
2017-08-10T06:18:02.806Z,12.03
2017-08-10T06:20:29.616Z,11.50
2017-08-10T06:22:57.031Z,11.47
2017-08-10T06:25:23.862Z,10.70
2017-08-10T06:27:50.711Z,11.20
2017-08-10T06:30:17.597Z,10.10
2017-08-10T06:32:44.478Z,10.57
2017-08-10T06:35:11.278Z,10.50
2017-08-10T06:37:38.036Z,9.50
2017-08-10T06:40:04.872Z,10.27
2017-08-10T06:42:31.660Z,9.87
2017-08-10T06:44:58.502Z,10.57
2017-08-10T06:47:25.395Z,9.40
2017-08-10T06:49:52.169Z,10.03
2017-08-10T06:52:18.936Z,10.20
2017-08-10T06:54:45.806Z,10.53
2017-08-10T06:57:12.577Z,10.63
2017-08-10T06:59:40.088Z,10.80
2017-08-10T07:02:06.941Z,10.70
2017-08-10T07:04:33.713Z,10.80
2017-08-10T07:07:00.547Z,9.90
2017-08-10T07:09:27.423Z,8.87
2017-08-10T07:11:54.635Z,9.97
2017-08-10T07:14:21.411Z,11.07
2017-08-10T07:16:48.232Z,10.17
2017-08-10T07:19:15.052Z,9.93
2017-08-10T07:21:41.837Z,9.70
2017-08-10T07:24:08.710Z,10.60
2017-08-10T07:26:35.518Z,10.20
2017-08-10T07:29:02.315Z,11.10
2017-08-10T07:31:29.206Z,11.00
2017-08-10T07:33:56.004Z,11.90
2017-08-10T07:36:22.852Z,10.90
2017-08-10T07:38:49.735Z,11.30
2017-08-10T07:41:16.532Z,10.80
2017-08-10T07:43:43.308Z,11.30
2017-08-10T07:46:10.143Z,10.73
2017-08-10T07:48:37.712Z,11.43
2017-08-10T07:51:04.633Z,10.97
2017-08-10T07:53:31.543Z,10.50
2017-08-10T07:55:58.377Z,10.20
2017-08-10T07:58:25.283Z,11.10
2017-08-10T08:00:52.299Z,10.57
2017-08-10T08:03:19.153Z,9.67
2017-08-10T08:05:46.431Z,10.30
2017-08-10T08:08:13.296Z,10.50
2017-08-10T08:10:40.168Z,10.80
2017-08-10T08:13:06.972Z,10.83
2017-08-10T08:15:33.794Z,10.77
2017-08-10T08:18:00.683Z,10.27
2017-08-10T08:20:27.485Z,10.20
2017-08-10T08:22:54.948Z,9.63
2017-08-10T08:25:22.789Z,10.30
2017-08-10T08:27:50.365Z,9.70
2017-08-10T08:30:18.130Z,11.23
2017-08-10T08:32:45.024Z,9.93
2017-08-10T08:35:11.884Z,10.37
2017-08-10T08:37:38.732Z,10.40
2017-08-10T08:40:05.520Z,10.90
2017-08-10T08:42:32.340Z,10.37
2017-08-10T08:44:59.285Z,9.37
2017-08-10T08:47:26.105Z,9.30
2017-08-10T08:49:52.918Z,9.83
2017-08-10T08:52:19.768Z,8.90
2017-08-10T08:54:46.599Z,9.37
2017-08-10T08:57:13.726Z,10.07
2017-08-10T08:59:40.585Z,9.93
2017-08-10T09:02:08.139Z,9.37
2017-08-10T09:04:34.949Z,9.40
2017-08-10T09:07:04.104Z,9.50
2017-08-10T09:09:30.969Z,9.43
2017-08-10T09:11:57.824Z,8.23
2017-08-10T09:14:24.998Z,7.83
2017-08-10T09:16:51.872Z,8.20
2017-08-10T09:19:18.718Z,8.00
2017-08-10T09:21:45.524Z,8.50
2017-08-10T09:24:12.290Z,8.67
2017-08-10T09:26:39.137Z,8.70
2017-08-10T09:29:05.963Z,8.60
2017-08-10T09:31:32.796Z,9.00
2017-08-10T09:33:59.584Z,8.30
2017-08-10T09:36:26.384Z,8.80
2017-08-10T09:38:53.153Z,9.30
2017-08-10T09:41:19.981Z,9.00
2017-08-10T09:43:46.856Z,8.80
2017-08-10T09:46:13.640Z,8.30
2017-08-10T09:48:40.400Z,8.57
2017-08-10T09:51:07.249Z,8.73
2017-08-10T09:53:34.099Z,8.70
2017-08-10T09:56:00.864Z,8.10
2017-08-10T09:58:27.752Z,9.50
2017-08-10T10:00:54.590Z,8.70
2017-08-10T10:03:21.426Z,8.60
2017-08-10T10:05:48.294Z,8.50
2017-08-10T10:08:15.065Z,8.93
2017-08-10T10:10:41.899Z,8.53
2017-08-10T10:13:09.039Z,9.17
2017-08-10T10:15:35.807Z,8.67
2017-08-10T10:18:02.837Z,8.47
2017-08-10T10:20:29.679Z,8.70
2017-08-10T10:22:56.470Z,8.20
2017-08-10T10:25:23.252Z,8.37
2017-08-10T10:27:50.405Z,9.00
2017-08-10T10:30:17.979Z,9.20
2017-08-10T10:32:44.787Z,8.63
2017-08-10T10:35:11.622Z,7.87
2017-08-10T10:37:38.389Z,8.17
2017-08-10T10:40:05.146Z,8.77
2017-08-10T10:42:32.072Z,9.00
2017-08-10T10:44:58.828Z,9.03
2017-08-10T10:47:25.619Z,7.93
2017-08-10T10:49:52.418Z,8.70
2017-08-10T10:52:19.208Z,8.03
2017-08-10T10:54:45.972Z,8.40
2017-08-10T10:57:12.794Z,8.67
2017-08-10T10:59:39.584Z,8.43
2017-08-10T11:02:06.405Z,8.73
2017-08-10T11:04:33.403Z,8.47
2017-08-10T11:07:00.188Z,8.57
2017-08-10T11:09:26.973Z,8.27
2017-08-10T11:11:53.796Z,9.10
2017-08-10T11:14:20.646Z,9.20
2017-08-10T11:16:47.437Z,8.60
2017-08-10T11:19:14.302Z,8.47
2017-08-10T11:21:41.072Z,9.83
2017-08-10T11:24:07.970Z,9.47
2017-08-10T11:26:34.792Z,9.90
2017-08-10T11:29:01.624Z,8.43
2017-08-10T11:31:28.383Z,9.03
2017-08-10T11:33:56.101Z,8.70
2017-08-10T11:36:22.870Z,9.97
2017-08-10T11:38:49.644Z,9.33
2017-08-10T11:41:16.445Z,9.80
2017-08-10T11:43:43.239Z,9.90
2017-08-10T11:46:10.057Z,9.03
2017-08-10T11:48:36.901Z,10.00
2017-08-10T11:51:03.725Z,9.73
2017-08-10T11:53:30.567Z,9.07
2017-08-10T11:55:57.380Z,9.50
2017-08-10T11:58:24.228Z,9.50
2017-08-10T12:00:51.079Z,9.30
2017-08-10T12:03:17.876Z,10.10
2017-08-10T12:05:44.721Z,9.93
2017-08-10T12:08:11.564Z,9.63
2017-08-10T12:10:38.632Z,9.73
2017-08-10T12:13:05.428Z,9.80
2017-08-10T12:15:32.196Z,9.67
2017-08-10T12:17:59.072Z,9.50
2017-08-10T12:20:25.846Z,10.17
2017-08-10T12:22:52.604Z,9.40
2017-08-10T12:25:20.128Z,9.17
2017-08-10T12:27:46.901Z,9.00
2017-08-10T12:30:13.748Z,9.67
2017-08-10T12:32:40.598Z,10.20
2017-08-10T12:35:07.431Z,9.87
2017-08-10T12:37:34.204Z,9.90
2017-08-10T12:40:01.025Z,10.27
2017-08-10T12:42:27.872Z,9.90
2017-08-10T12:44:54.706Z,10.50
2017-08-10T12:47:21.579Z,10.37
2017-08-10T12:49:48.346Z,9.43
2017-08-10T12:52:15.150Z,10.07
2017-08-10T12:54:42.059Z,10.10
2017-08-10T12:57:08.828Z,10.43
2017-08-10T12:59:35.628Z,10.63
2017-08-10T13:02:02.443Z,10.07
2017-08-10T13:04:31.882Z,10.10
2017-08-10T13:06:58.730Z,9.30
2017-08-10T13:09:25.864Z,10.03
2017-08-10T13:11:52.711Z,10.30
2017-08-10T13:14:19.504Z,10.00
2017-08-10T13:16:46.304Z,9.33
2017-08-10T13:19:13.421Z,9.33
2017-08-10T13:21:40.925Z,9.93
2017-08-10T13:24:07.725Z,9.63
2017-08-10T13:26:34.502Z,10.20
2017-08-10T13:29:01.285Z,10.93
2017-08-10T13:31:28.104Z,10.43
2017-08-10T13:33:54.881Z,10.03
2017-08-10T13:36:21.640Z,9.90
2017-08-10T13:38:48.522Z,9.73
2017-08-10T13:41:15.333Z,9.77
2017-08-10T13:43:42.742Z,10.00
2017-08-10T13:46:09.540Z,10.67
2017-08-10T13:48:36.375Z,10.00
2017-08-10T13:51:03.763Z,10.30
2017-08-10T13:53:30.603Z,9.90
2017-08-10T13:55:57.372Z,9.63
2017-08-10T13:58:24.149Z,10.80
2017-08-10T14:00:50.965Z,10.23
2017-08-10T14:03:17.759Z,9.60
2017-08-10T14:05:44.572Z,9.80
2017-08-10T14:08:11.451Z,9.60
2017-08-10T14:10:38.220Z,10.33
2017-08-10T14:13:05.074Z,10.00
2017-08-10T14:15:32.809Z,10.17
2017-08-10T14:17:59.576Z,9.43
2017-08-10T14:20:26.357Z,9.03
2017-08-10T14:22:53.238Z,9.37
2017-08-10T14:25:20.011Z,9.97
2017-08-10T14:27:46.776Z,10.70
2017-08-10T14:30:13.602Z,9.90
2017-08-10T14:32:40.392Z,9.33
2017-08-10T14:35:07.183Z,9.60
2017-08-10T14:37:33.986Z,9.10
2017-08-10T14:40:00.752Z,9.90
2017-08-10T14:42:27.604Z,10.00
2017-08-10T14:44:54.418Z,9.57
2017-08-10T14:47:21.262Z,9.77
2017-08-10T14:49:48.042Z,9.60
2017-08-10T14:52:14.865Z,10.00
2017-08-10T14:54:41.707Z,9.90
2017-08-10T14:57:08.505Z,9.10
2017-08-10T14:59:35.406Z,10.30
2017-08-10T15:02:02.177Z,10.00
2017-08-10T15:04:29.339Z,10.27
2017-08-10T15:06:56.183Z,9.97
2017-08-10T15:09:22.968Z,9.70
2017-08-10T15:11:49.806Z,10.10
2017-08-10T15:14:16.647Z,9.30
2017-08-10T15:16:43.448Z,10.00
2017-08-10T15:19:10.219Z,9.30
2017-08-10T15:21:37.056Z,10.07
2017-08-10T15:24:03.848Z,9.30
2017-08-10T15:26:30.636Z,9.27
2017-08-10T15:28:57.517Z,9.73
2017-08-10T15:31:24.366Z,10.27
2017-08-10T15:33:51.209Z,10.07
2017-08-10T15:36:18.086Z,10.50
2017-08-10T15:38:44.856Z,10.00
2017-08-10T15:41:11.656Z,10.03
2017-08-10T15:43:38.653Z,10.40
2017-08-10T15:46:05.494Z,11.07
2017-08-10T15:48:32.448Z,10.90
2017-08-10T15:51:00.250Z,10.70
2017-08-10T15:53:27.052Z,10.00
2017-08-10T15:55:53.998Z,11.33
2017-08-10T15:58:20.832Z,11.70
2017-08-10T16:00:47.730Z,10.40
2017-08-10T16:03:14.581Z,9.40
2017-08-10T16:07:51.143Z,9.18
2017-08-10T16:10:18.717Z,9.63
2017-08-10T16:12:46.209Z,10.27
2017-08-10T16:15:13.734Z,9.80
2017-08-10T16:17:41.287Z,8.80
2017-08-10T16:20:08.904Z,8.60
2017-08-10T16:22:36.440Z,9.90
2017-08-10T16:25:03.925Z,10.87
2017-08-10T16:27:31.437Z,10.70
2017-08-10T16:29:58.965Z,10.77
2017-08-10T16:32:26.473Z,10.13
2017-08-10T16:34:54.027Z,10.37
2017-08-10T16:37:21.564Z,10.87
2017-08-10T16:39:49.067Z,9.40
2017-08-10T16:42:16.601Z,11.40
2017-08-10T16:44:44.286Z,10.90
2017-08-10T16:47:11.818Z,11.70
2017-08-10T16:49:39.379Z,11.80
2017-08-10T16:52:06.957Z,11.50
2017-08-10T16:54:34.516Z,12.07
2017-08-10T16:57:02.002Z,12.93
2017-08-10T16:59:29.688Z,11.53
2017-08-10T17:01:57.198Z,12.77
2017-08-10T17:04:24.753Z,11.73
2017-08-10T17:06:52.272Z,12.50
2017-08-10T17:09:19.770Z,12.37
2017-08-10T17:11:47.336Z,41.33
2017-08-10T17:14:14.944Z,24.20
2017-08-10T17:16:42.511Z,48.90
2017-08-10T17:19:10.072Z,24.40
2017-08-10T17:21:37.669Z,46.03
2017-08-10T17:24:05.188Z,28.07
2017-08-10T17:26:32.686Z,20.00
2017-08-10T17:29:00.254Z,14.77
2017-08-10T17:31:27.792Z,13.70
2017-08-10T17:33:55.301Z,12.53
2017-08-10T17:36:22.838Z,13.30
2017-08-10T17:38:50.325Z,12.50
2017-08-10T17:41:17.832Z,11.53
2017-08-10T17:43:45.441Z,13.43
2017-08-10T17:46:12.997Z,13.53
2017-08-10T17:48:40.548Z,13.10
2017-08-10T17:51:08.081Z,12.60
2017-08-10T17:53:35.620Z,12.93
2017-08-10T17:56:03.109Z,13.60
2017-08-10T17:58:30.632Z,13.30
2017-08-10T18:01:00.143Z,15.00
2017-08-10T18:03:25.862Z,13.50
2017-08-10T18:05:53.482Z,12.47
2017-08-10T18:08:20.986Z,12.63
2017-08-10T18:10:48.471Z,15.57
2017-08-10T18:13:16.098Z,12.33
2017-08-10T18:15:43.656Z,14.30
2017-08-10T18:18:11.213Z,12.53
2017-08-10T18:20:38.742Z,12.40
2017-08-10T18:23:06.388Z,12.87
2017-08-10T18:25:33.987Z,12.03
2017-08-10T18:28:01.514Z,12.63
2017-08-10T18:30:29.032Z,11.67
2017-08-10T18:32:56.536Z,12.50
2017-08-10T18:35:24.073Z,12.70
2017-08-10T18:37:51.581Z,12.80
2017-08-10T18:40:19.094Z,11.87
2017-08-10T18:42:46.707Z,12.60
2017-08-10T18:45:14.684Z,13.40
2017-08-10T18:47:42.165Z,12.90
2017-08-10T18:50:09.682Z,13.43
2017-08-10T18:52:37.235Z,13.63
2017-08-10T18:55:04.717Z,14.00
2017-08-10T18:57:35.929Z,12.60
2017-08-10T19:00:14.075Z,13.40
2017-08-10T19:02:41.659Z,13.70
2017-08-10T19:05:09.264Z,13.37
2017-08-10T19:07:36.759Z,12.27
2017-08-10T19:10:04.295Z,12.53
2017-08-10T19:12:31.803Z,14.00
2017-08-10T19:14:59.312Z,13.23
2017-08-10T19:17:26.899Z,14.10
2017-08-10T19:19:54.525Z,13.20
2017-08-10T19:22:22.035Z,13.80
2017-08-10T19:24:49.616Z,12.20
2017-08-10T19:27:17.181Z,13.47
2017-08-10T19:29:44.665Z,13.20
2017-08-10T19:32:12.215Z,13.50
2017-08-10T19:34:40.961Z,13.30
2017-08-10T19:37:08.554Z,13.73
2017-08-10T19:39:36.828Z,12.37
2017-08-10T19:42:04.319Z,12.90
2017-08-10T19:44:31.814Z,12.27
2017-08-10T19:46:59.340Z,12.10
2017-08-10T19:49:26.822Z,12.40
2017-08-10T19:51:54.309Z,12.37
2017-08-10T19:54:22.274Z,12.80
2017-08-10T19:56:49.767Z,11.97
2017-08-10T19:59:17.250Z,11.53
2017-08-10T20:01:44.778Z,11.87
2017-08-10T20:04:12.266Z,11.93
2017-08-10T20:06:39.784Z,11.70
2017-08-10T20:09:08.306Z,13.07
2017-08-10T20:11:35.806Z,12.20
2017-08-10T20:14:03.325Z,12.90
2017-08-10T20:16:30.915Z,12.07
2017-08-10T20:18:58.492Z,12.77
2017-08-10T20:21:26.019Z,12.53
2017-08-10T20:23:53.582Z,11.80
2017-08-10T20:26:21.060Z,12.47
2017-08-10T20:28:48.610Z,13.63
2017-08-10T20:31:16.199Z,11.07
2017-08-10T20:33:43.751Z,11.20
2017-08-10T20:36:11.243Z,11.57
2017-08-10T20:38:38.860Z,12.30
2017-08-10T20:41:06.364Z,12.07
2017-08-10T20:43:33.877Z,12.07
2017-08-10T20:46:01.475Z,13.00
2017-08-10T20:48:28.956Z,12.43
2017-08-10T20:50:57.134Z,12.70
2017-08-10T20:53:24.676Z,11.90
2017-08-10T20:55:52.490Z,11.40
2017-08-10T20:58:20.789Z,11.77
2017-08-10T21:00:49.342Z,11.23
2017-08-10T21:03:16.845Z,10.83
2017-08-10T21:05:44.358Z,10.80
2017-08-10T21:08:11.896Z,10.77
2017-08-10T21:10:39.400Z,12.07
2017-08-10T21:13:06.940Z,11.33
2017-08-10T21:15:34.487Z,11.40
2017-08-10T21:18:02.050Z,12.13
2017-08-10T21:20:29.556Z,11.73
2017-08-10T21:22:57.088Z,12.03
2017-08-10T21:25:24.652Z,12.33
2017-08-10T21:27:52.133Z,11.87
2017-08-10T21:30:19.892Z,11.80
2017-08-10T21:32:47.444Z,11.70
2017-08-10T21:35:14.922Z,11.80
2017-08-10T21:37:42.503Z,12.30
2017-08-10T21:40:10.004Z,12.60
2017-08-10T21:42:37.551Z,11.80
2017-08-10T21:45:05.161Z,12.00
2017-08-10T21:47:32.668Z,11.73
2017-08-10T21:50:00.154Z,11.43
2017-08-10T21:52:27.753Z,11.47
2017-08-10T21:54:55.324Z,11.83
2017-08-10T21:57:22.840Z,11.70
2017-08-10T21:59:50.390Z,12.03
2017-08-10T22:02:17.896Z,11.83
2017-08-10T22:04:45.386Z,11.57
2017-08-10T22:07:12.901Z,12.00
2017-08-10T22:09:40.406Z,12.40
2017-08-10T22:12:07.905Z,11.50
2017-08-10T22:14:35.425Z,10.77
2017-08-10T22:17:02.901Z,11.47
2017-08-10T22:19:30.414Z,10.57
2017-08-10T22:21:57.964Z,11.17
2017-08-10T22:24:25.446Z,10.93
2017-08-10T22:26:53.054Z,11.37
2017-08-10T22:29:20.648Z,11.23
2017-08-10T22:31:48.149Z,10.30
2017-08-10T22:34:15.703Z,11.17
2017-08-10T22:36:43.231Z,10.10
2017-08-10T22:39:10.734Z,10.80
2017-08-10T22:41:38.288Z,11.60
2017-08-10T22:44:05.812Z,10.37
2017-08-10T22:46:33.320Z,11.30
2017-08-10T22:49:00.880Z,10.63
2017-08-10T22:51:28.975Z,10.23
2017-08-10T22:53:56.502Z,9.90
2017-08-10T22:56:24.754Z,10.07
2017-08-10T22:58:53.209Z,10.33
2017-08-10T23:01:20.692Z,10.50
2017-08-10T23:03:48.197Z,9.60
2017-08-10T23:06:16.592Z,10.40
2017-08-10T23:08:44.086Z,10.50
2017-08-10T23:11:11.602Z,10.50
2017-08-10T23:13:39.140Z,10.40
2017-08-10T23:16:06.636Z,11.60
2017-08-10T23:18:34.191Z,11.70
2017-08-10T23:21:01.735Z,10.70
2017-08-10T23:23:29.284Z,10.90
2017-08-10T23:25:56.835Z,9.80
2017-08-10T23:28:24.427Z,9.93
2017-08-10T23:30:51.919Z,9.93
2017-08-10T23:33:19.536Z,11.33
2017-08-10T23:35:47.130Z,10.07
2017-08-10T23:38:14.715Z,10.60
2017-08-10T23:40:43.357Z,10.23
2017-08-10T23:43:10.894Z,10.83
2017-08-10T23:45:38.407Z,10.47
2017-08-10T23:48:06.015Z,10.40
2017-08-10T23:50:33.570Z,9.93
2017-08-10T23:53:01.243Z,10.40
2017-08-10T23:55:29.058Z,9.90
2017-08-10T23:57:56.644Z,9.87
